AirNav   ATP
 
 700 users online  

PASK Selawik Airport
Selawik, Alaska, USA


FAA INFORMATION EFFECTIVE 29 MARCH 2018

Location

FAA Identifier: WLK
Lat/Long: 66-36-00.5000N / 159-59-08.7000W
66-36.008333N / 159-59.145000W
66.6001389 / -159.9857500
(estimated)
Elevation: 17.1 ft. / 5.2 m (surveyed)
Variation: 16E (2010)
Time zone: UTC -8 (UTC -9 during Standard Time)

Airport Operations

Airport use: Open to the public
Activation date: 09/1958
Control tower: no
ARTCC: ANCHORAGE CENTER
FSS: KOTZEBUE FLIGHT SERVICE STATION [907-442-3310]
Alternate FSS: FAI FAIRBANKS FLIGHT SERVICE STATION [1-866-248-6516]
NOTAMs facility: WLK (NOTAM-D service available)
Attendance: UNATNDD
Wind indicator: lighted
Segmented circle: yes
Lights: ACTVT MIRL RYS 09/27 & 04/22; VASI RY 04 & PAPI RY 27 - CTAF.
Beacon: white-green (lighted land airport)
ACTVT ROTG BCN - CTAF.

Airport Communications

CTAF: 122.7
WX AWOS-3P: 135.65
  • APCH/DEP SERVICE PROVIDED BY ANCHORAGE ARTCC ON FREQS 119.2/263.0 (KOTZEBUE RCAG).COMMUNICATIONS PRVDD BY KOTZEBUE FSS ON FREQ 122.50 (SELWIK RCO).

Nearby radio navigation aids

VOR radial/distance  VOR name  Freq  Var
WLK at fieldSELAWIK VOR/DME114.2016E

Airport Services

Airframe service: NONE
Powerplant service: NONE
Bottled oxygen: NONE
Bulk oxygen: NONE

Runway Information

Runway 4/22

Dimensions: 3002 x 60 ft. / 915 x 18 m
Surface: gravel, in good condition
Runway edge lights: medium intensity
RUNWAY 4  RUNWAY 22
Latitude: 66-35.837958N66-36.132238N
Longitude: 159-59.532873W159-58.540017W
Elevation: 17.0 ft.9.7 ft.
Traffic pattern: leftleft
Runway heading: 037 magnetic, 053 true217 magnetic, 233 true
Visual slope indicator: 4-box VASI on left (3.00 degrees glide path)
Touchdown point: yes, no lightsyes, no lights
Obstructions: 5 ft. brush, 70 ft. left and right of centerline6 ft. brush, 70 ft. left and right of centerline

Runway 9/27

Dimensions: 2659 x 60 ft. / 810 x 18 m
Surface: gravel, in good condition
Runway edge lights: medium intensity
RUNWAY 9  RUNWAY 27
Latitude: 66-36.095205N66-35.972795N
Longitude: 159-59.795033W159-58.742108W
Elevation: 15.3 ft.9.4 ft.
Traffic pattern: leftleft
Runway heading: 090 magnetic, 106 true270 magnetic, 286 true
Visual slope indicator: 4-light PAPI on right (3.00 degrees glide path)
Runway end identifier lights: nono
Touchdown point: yes, no lightsyes, no lights
Obstructions: 7 ft. brush, 65 ft. left of centerline5 ft. brush, 70 ft. left and right of centerline

Airport Ownership and Management from official FAA records

Ownership: Publicly-owned
Owner: ALASKA DOT&PF NORTHERN REGION
NORTHERN REGION, 2301 PEGER RD
FAIRBANKS, AK 99709
Phone 907-451-2200
Manager: ALVIN WERNEKE
BOX 55
KOTZEBUE, AK 99752
Phone 907-442-3147

Airport Operational Statistics

Aircraft operations: avg 110/week *
100% air taxi
* for 12-month period ending 31 December 2016

Additional Remarks

RY COND NOT MONITORED; RCMD VISUAL INSPECTION PRIOR TO LNDG.
WX CAMERA AVBL ON INTERNET AT HTTP://AVCAMS.FAA.GOV
COLD TEMPERATURE RESTRICTED AIRPORT. ALTITUDE CORRECTION REQUIRED AT OR BELOW -36C.

Instrument Procedures

NOTE: All procedures below are presented as PDF files. If you need a reader for these files, you should download the free Adobe Reader.

NOT FOR NAVIGATION. Please procure official charts for flight.
FAA instrument procedures published for use from 29 March 2018 at 0901Z to 26 April 2018 at 0900Z.

 
IAPs - Instrument Approach Procedures
RNAV (GPS) RWY 04   download (260KB)
RNAV (GPS) RWY 27   download (254KB)
RNAV (GPS) Y RWY 22   download (273KB)
RNAV (GPS) Z RWY 22   download (284KB)
VOR RWY 04   download (244KB)
VOR RWY 22   download (224KB)
NOTE: Special Alternate Minimums apply   download (84KB)
NOTE: Special Take-Off Minimums/Departure Procedures apply   download

Other nearby airports with instrument procedures:

PAIK - Bob Baker Memorial Airport (25 nm NW)
PFNO - Robert (Bob) Curtis Memorial Airport (28 nm NW)
PABL - Buckland Airport (47 nm SW)
PAFM - Ambler Airport (59 nm NE)
PAOT - Ralph Wien Memorial Airport (64 nm W)
 
Loc | Ops | Rwys | IFR | FBO | Links
Com | Nav | Svcs | Stats | Notes

Crowley
 
Area around PASK (Selawik Airport)
 
Road maps at: MapQuest Bing Google
 
Aerial photo
No photo
 
Sectional chart

 
Airport distance calculator
Flying to Selawik Airport? Find the distance to fly.

From to PASK

Sunrise and sunset
Times for 19-Apr-2018
 Local
(UTC-8)
 Zulu
(UTC)
Morning civil twilight05:3213:32
Sunrise06:4014:40
Sunset22:3806:38
Evening civil twilight23:4607:46

Current date and time
Zulu (UTC)  19-Apr-2018 11:48:51
Local (UTC-8)  19-Apr-2018 03:48:51
 
METAR
PASK 
24nm W 
191056Z AUTO 05010KT 10SM CLR M07/M12 A2973 RMK AO2 SLP063 T10721117 FZRANO $
PAIK 
25nm NW 
191056Z AUTO 09004KT 10SM CLR M04/M11 A2975 RMK AO2 SLP080 T10441106 FZRANO
PFNO 
28nm NW 
191056Z AUTO 07014KT 10SM CLR M04/M11 A2973 RMK AO2 SLP068 T10391106 FZRANO
PABL 
46nm SW 
191056Z AUTO 17007KT 10SM CLR M06/M11 A2969 RMK AO2 SLP056 T10611111 FZRANO
TAF
NOTAMs
Click for the latest NOTAMs
NOTAMs are issued by the DoD/FAA and will open in a separate window not controlled by AirNav.

 

 
 

Would you like to see your business listed on this page?

 If your business provides an interesting product or service to pilots, flight crews, aircraft, or users of the Selawik Airport, you should consider listing it here.  To start the listing process, click on the button below
 
Add a business
 

Other Pages about Selawik Airport

Update a link
 
Copyright © AirNav, LLC. All rights reserved. Privacy Policy  Contact